createdAt,value
2022-12-03T00:01:27.790Z,4.16
2022-12-03T00:03:57.630Z,4.25
2022-12-03T00:06:32.927Z,4.22
2022-12-03T00:09:03.931Z,4.35
2022-12-03T00:11:36.056Z,4.38
2022-12-03T00:14:05.539Z,4.39
2022-12-03T00:16:35.000Z,4.07
2022-12-03T00:19:04.486Z,4.33
2022-12-03T00:21:34.018Z,4.38
2022-12-03T00:24:03.500Z,4.36
2022-12-03T00:26:32.936Z,4.50
2022-12-03T00:29:04.972Z,4.49
2022-12-03T00:31:34.500Z,4.66
2022-12-03T00:34:04.025Z,4.38
2022-12-03T00:36:33.741Z,4.60
2022-12-03T00:39:03.213Z,4.70
2022-12-03T00:41:32.667Z,4.72
2022-12-03T00:44:04.699Z,4.90
2022-12-03T00:46:34.210Z,4.88
2022-12-03T00:49:03.710Z,4.86
2022-12-03T00:51:33.164Z,4.17
2022-12-03T00:54:02.621Z,4.43
2022-12-03T00:56:32.309Z,4.28
2022-12-03T00:59:01.789Z,4.32
2022-12-03T01:01:33.873Z,4.57
2022-12-03T01:04:03.330Z,4.78
2022-12-03T01:06:32.776Z,4.72
2022-12-03T01:09:02.256Z,4.79
2022-12-03T01:11:41.452Z,4.91
2022-12-03T01:14:12.660Z,4.80
2022-12-03T01:16:44.763Z,4.92
2022-12-03T01:19:15.999Z,4.66
2022-12-03T01:21:45.603Z,4.72
2022-12-03T01:24:15.188Z,4.91
2022-12-03T01:26:44.663Z,4.95
2022-12-03T01:29:14.356Z,4.75
2022-12-03T01:31:58.882Z,4.73
2022-12-03T01:34:28.351Z,4.60
2022-12-03T01:36:57.826Z,4.52
2022-12-03T01:39:27.337Z,4.53
2022-12-03T01:41:57.890Z,4.28
2022-12-03T01:44:28.594Z,4.27
2022-12-03T01:47:01.658Z,4.51
2022-12-03T01:49:32.878Z,4.54
2022-12-03T01:52:02.358Z,4.67
2022-12-03T01:54:35.892Z,4.65
2022-12-03T01:57:05.343Z,4.86
2022-12-03T01:59:35.789Z,4.79
2022-12-03T02:02:13.890Z,4.78
2022-12-03T02:04:43.479Z,4.81
2022-12-03T02:07:21.125Z,4.88
2022-12-03T02:09:50.588Z,4.91
2022-12-03T02:12:21.311Z,4.91
2022-12-03T02:14:51.029Z,4.82
2022-12-03T02:17:23.450Z,4.80
2022-12-03T02:19:52.912Z,4.76
2022-12-03T02:22:30.632Z,4.81
2022-12-03T02:25:12.542Z,4.85
2022-12-03T02:27:42.025Z,4.73
2022-12-03T02:30:12.601Z,4.67
2022-12-03T02:32:42.112Z,4.71
2022-12-03T02:35:16.150Z,4.88
2022-12-03T02:37:45.600Z,4.90
2022-12-03T02:40:18.840Z,4.82
2022-12-03T02:42:45.816Z,4.92
2022-12-03T02:45:17.455Z,4.88
2022-12-03T02:47:47.732Z,5.10
2022-12-03T02:50:18.025Z,5.07
2022-12-03T02:52:47.714Z,5.05
2022-12-03T02:55:19.773Z,4.90
2022-12-03T02:57:49.695Z,4.69
2022-12-03T03:00:19.742Z,4.68
2022-12-03T03:02:49.685Z,4.88
2022-12-03T03:05:19.271Z,4.66
2022-12-03T03:07:48.760Z,4.51
2022-12-03T03:10:22.638Z,4.61
2022-12-03T03:12:52.201Z,4.78
2022-12-03T03:15:21.947Z,4.87
2022-12-03T03:17:51.426Z,5.01
2022-12-03T03:20:21.064Z,4.98
2022-12-03T03:22:50.697Z,4.94
2022-12-03T03:25:24.837Z,4.97
2022-12-03T03:27:54.370Z,5.20
2022-12-03T03:30:24.014Z,5.00
2022-12-03T03:32:53.568Z,4.64
2022-12-03T03:35:23.170Z,4.85
2022-12-03T03:37:53.535Z,4.98
2022-12-03T03:40:25.712Z,4.87
2022-12-03T03:42:55.245Z,5.06
2022-12-03T03:45:29.095Z,4.96
2022-12-03T03:47:59.248Z,4.89
2022-12-03T03:50:28.854Z,4.91
2022-12-03T03:52:58.628Z,4.89
2022-12-03T03:55:30.752Z,4.99
2022-12-03T03:58:00.337Z,5.03
2022-12-03T04:00:29.891Z,4.84
2022-12-03T04:02:59.461Z,4.89
2022-12-03T04:05:29.245Z,4.88
2022-12-03T04:07:58.901Z,4.84
2022-12-03T04:10:43.558Z,4.88
2022-12-03T04:13:13.125Z,4.94
2022-12-03T04:15:42.700Z,5.08
2022-12-03T04:18:24.711Z,4.81
2022-12-03T04:21:14.275Z,4.72
2022-12-03T04:23:41.206Z,4.70
2022-12-03T04:26:25.805Z,4.71
2022-12-03T04:28:55.386Z,5.01
2022-12-03T04:31:37.402Z,4.88
2022-12-03T04:34:19.517Z,4.74
2022-12-03T04:36:49.136Z,4.85
2022-12-03T04:39:18.719Z,4.54
2022-12-03T04:41:50.869Z,4.58
2022-12-03T04:44:32.872Z,4.60
2022-12-03T04:47:02.474Z,4.73
2022-12-03T04:49:32.015Z,4.84
2022-12-03T04:52:01.561Z,4.66
2022-12-03T04:54:31.255Z,4.75
2022-12-03T04:57:03.421Z,4.76
2022-12-03T04:59:33.011Z,4.86
2022-12-03T05:02:02.668Z,4.93
2022-12-03T05:04:32.209Z,4.89
2022-12-03T05:07:01.796Z,4.92
2022-12-03T05:09:31.365Z,4.92
2022-12-03T05:12:03.992Z,4.93
2022-12-03T05:14:33.522Z,4.98
2022-12-03T05:17:03.175Z,4.94
2022-12-03T05:19:45.068Z,4.69
2022-12-03T05:22:14.692Z,4.65
2022-12-03T05:24:44.246Z,4.65
2022-12-03T05:27:21.720Z,4.94
2022-12-03T05:29:53.183Z,5.00
2022-12-03T05:32:22.765Z,4.94
2022-12-03T05:34:52.805Z,4.96
2022-12-03T05:37:22.657Z,4.85
2022-12-03T05:39:52.340Z,5.01
2022-12-03T05:42:36.954Z,5.06
2022-12-03T05:45:07.246Z,4.89
2022-12-03T05:47:36.830Z,5.00
2022-12-03T05:50:06.957Z,5.08
2022-12-03T05:52:36.542Z,5.07
2022-12-03T05:55:06.674Z,4.99
2022-12-03T05:57:38.838Z,4.81
2022-12-03T06:00:10.138Z,4.77
2022-12-03T06:02:39.790Z,4.86
2022-12-03T06:05:10.188Z,5.01
2022-12-03T06:07:39.845Z,4.80
2022-12-03T06:10:11.035Z,4.74
2022-12-03T06:12:43.236Z,4.81
2022-12-03T06:15:13.526Z,4.79
2022-12-03T06:17:43.077Z,4.84
2022-12-03T06:20:13.799Z,4.72
2022-12-03T06:22:43.424Z,4.84
2022-12-03T06:25:12.975Z,4.79
2022-12-03T06:27:45.154Z,4.94
2022-12-03T06:30:15.713Z,4.88
2022-12-03T06:32:45.278Z,5.01
2022-12-03T06:35:14.834Z,5.09
2022-12-03T06:37:44.342Z,4.70
2022-12-03T06:40:16.798Z,4.88
2022-12-03T06:42:48.992Z,4.91
2022-12-03T06:45:18.566Z,5.01
2022-12-03T06:47:48.154Z,4.92
2022-12-03T06:50:17.704Z,4.74
2022-12-03T06:52:47.250Z,4.77
2022-12-03T06:55:16.933Z,4.82
2022-12-03T06:57:49.079Z,4.95
2022-12-03T07:00:19.184Z,5.01
2022-12-03T07:02:48.802Z,4.92
2022-12-03T07:05:18.561Z,4.87
2022-12-03T07:07:52.188Z,5.03
2022-12-03T07:10:22.153Z,4.94
2022-12-03T07:12:54.320Z,4.95
2022-12-03T07:15:23.959Z,5.04
2022-12-03T07:17:53.735Z,5.17
2022-12-03T07:20:23.289Z,5.35
2022-12-03T07:22:52.861Z,5.29
2022-12-03T07:25:23.757Z,5.15
2022-12-03T07:27:58.518Z,5.26
2022-12-03T07:30:28.143Z,5.11
2022-12-03T07:32:57.672Z,5.09
2022-12-03T07:35:27.213Z,5.20
2022-12-03T07:37:56.718Z,5.29
2022-12-03T07:40:26.173Z,5.36
2022-12-03T07:42:58.309Z,5.24
2022-12-03T07:45:27.911Z,5.01
2022-12-03T07:47:57.461Z,5.00
2022-12-03T07:50:28.352Z,5.07
2022-12-03T07:52:57.954Z,5.18
2022-12-03T07:55:27.564Z,4.78
2022-12-03T07:57:59.702Z,4.64
2022-12-03T08:00:29.404Z,4.62
2022-12-03T08:02:59.056Z,4.94
2022-12-03T08:05:29.750Z,5.03
2022-12-03T08:07:59.613Z,5.33
2022-12-03T08:10:29.415Z,5.43
2022-12-03T08:13:02.164Z,5.34
2022-12-03T08:15:37.286Z,5.21
2022-12-03T08:18:14.861Z,5.21
2022-12-03T08:20:45.406Z,5.18
2022-12-03T08:23:16.544Z,4.87
2022-12-03T08:25:46.187Z,4.71
2022-12-03T08:28:21.612Z,4.44
2022-12-03T08:30:58.966Z,4.43
2022-12-03T08:33:29.595Z,4.54
2022-12-03T08:35:59.148Z,4.78
2022-12-03T08:38:28.702Z,4.35
2022-12-03T08:40:58.216Z,4.48
2022-12-03T08:43:31.111Z,4.60
2022-12-03T08:46:01.002Z,4.71
2022-12-03T08:48:32.821Z,4.59
2022-12-03T08:51:04.737Z,4.13
2022-12-03T08:53:36.066Z,4.00
2022-12-03T08:56:07.288Z,4.29
2022-12-03T08:58:41.134Z,4.22
2022-12-03T09:01:41.228Z,4.38
2022-12-03T09:04:24.520Z,4.49
2022-12-03T09:06:54.375Z,4.38
2022-12-03T09:09:24.101Z,4.26
2022-12-03T09:11:53.951Z,4.00
2022-12-03T09:14:26.219Z,4.38
2022-12-03T09:16:56.753Z,4.56
2022-12-03T09:19:26.760Z,4.53
2022-12-03T09:21:56.438Z,4.52
2022-12-03T09:24:26.028Z,4.81
2022-12-03T09:26:55.589Z,4.88
2022-12-03T09:29:27.729Z,5.01
2022-12-03T09:31:57.302Z,4.85
2022-12-03T09:34:26.887Z,5.14
2022-12-03T09:36:56.503Z,5.18
2022-12-03T09:39:26.264Z,4.94
2022-12-03T09:41:55.785Z,5.07
2022-12-03T09:44:27.912Z,5.37
2022-12-03T09:47:00.007Z,5.35
2022-12-03T09:49:29.793Z,5.40
2022-12-03T09:51:59.562Z,5.43
2022-12-03T09:54:30.050Z,5.34
2022-12-03T09:57:00.375Z,5.13
2022-12-03T09:59:33.539Z,5.17
2022-12-03T10:02:03.337Z,4.69
2022-12-03T10:04:32.953Z,5.01
2022-12-03T10:07:02.630Z,4.58
2022-12-03T10:09:32.419Z,4.57
2022-12-03T10:12:01.976Z,4.63
2022-12-03T10:14:34.181Z,4.80
2022-12-03T10:17:03.814Z,5.00
2022-12-03T10:19:35.573Z,4.87
2022-12-03T10:22:05.294Z,5.01
2022-12-03T10:24:35.330Z,5.05
2022-12-03T10:27:05.677Z,5.12
2022-12-03T10:29:38.366Z,4.94
2022-12-03T10:32:09.203Z,5.03
2022-12-03T10:34:39.849Z,5.15
2022-12-03T10:37:17.279Z,5.26
2022-12-03T10:39:56.903Z,5.34
2022-12-03T10:42:26.603Z,5.23
2022-12-03T10:45:20.811Z,5.06
2022-12-03T10:48:07.037Z,5.13
2022-12-03T10:50:36.587Z,5.00
2022-12-03T10:53:06.118Z,4.69
2022-12-03T10:55:38.793Z,4.74
2022-12-03T10:58:08.938Z,4.85
2022-12-03T11:00:41.164Z,4.93
2022-12-03T11:03:15.863Z,5.02
2022-12-03T11:05:45.473Z,5.14
2022-12-03T11:08:19.149Z,5.47
2022-12-03T11:10:48.935Z,5.50
2022-12-03T11:13:48.057Z,5.45
2022-12-03T11:17:12.878Z,5.58
2022-12-03T11:19:52.438Z,5.62
2022-12-03T11:22:46.933Z,5.57
2022-12-03T11:25:58.323Z,5.51
2022-12-03T11:28:34.096Z,5.43
2022-12-03T11:31:11.733Z,5.39
2022-12-03T11:33:44.658Z,5.62
2022-12-03T11:36:36.425Z,5.65
2022-12-03T11:39:10.714Z,5.80
2022-12-03T11:41:40.311Z,5.92
2022-12-03T11:44:31.929Z,5.76
2022-12-03T11:47:02.827Z,5.77
2022-12-03T11:49:53.423Z,5.98
2022-12-03T11:52:28.864Z,5.59
2022-12-03T11:55:01.940Z,5.50
2022-12-03T11:57:39.716Z,5.49
2022-12-03T12:00:23.388Z,5.85
2022-12-03T12:02:53.549Z,5.93
2022-12-03T12:05:26.146Z,5.94
2022-12-03T12:07:58.698Z,5.79
2022-12-03T12:10:41.939Z,6.03
2022-12-03T12:13:59.092Z,6.23
2022-12-03T12:16:47.637Z,6.16
2022-12-03T12:19:52.696Z,5.53
2022-12-03T12:22:32.465Z,5.67
2022-12-03T12:25:04.862Z,5.57
2022-12-03T12:27:36.488Z,5.25
2022-12-03T12:30:08.336Z,5.08
2022-12-03T12:32:48.596Z,5.17
2022-12-03T12:35:20.246Z,5.64
2022-12-03T12:37:58.949Z,5.94
2022-12-03T12:40:34.155Z,5.57
2022-12-03T12:43:11.575Z,5.22
2022-12-03T12:45:42.938Z,5.09
2022-12-03T12:48:24.842Z,5.01
2022-12-03T12:50:56.800Z,5.24
2022-12-03T12:53:27.209Z,5.27
2022-12-03T12:56:00.360Z,5.18
2022-12-03T12:58:32.658Z,5.26
2022-12-03T13:01:03.523Z,5.37
2022-12-03T13:03:35.632Z,5.60
2022-12-03T13:06:05.427Z,5.58
2022-12-03T13:08:36.424Z,5.60
2022-12-03T13:11:08.882Z,5.73
2022-12-03T13:13:44.018Z,5.68
2022-12-03T13:16:14.929Z,5.67
2022-12-03T13:18:47.860Z,5.75
2022-12-03T13:21:23.248Z,5.95
2022-12-03T13:23:53.991Z,6.08
2022-12-03T13:26:37.732Z,5.46
2022-12-03T13:29:10.039Z,5.20
2022-12-03T13:31:43.708Z,5.60
2022-12-03T13:34:15.065Z,5.63
2022-12-03T13:36:45.618Z,5.40
2022-12-03T13:39:17.048Z,5.54
2022-12-03T13:42:01.636Z,5.43
2022-12-03T13:44:31.612Z,5.32
2022-12-03T13:47:02.799Z,5.45
2022-12-03T13:49:32.412Z,5.14
2022-12-03T13:52:01.970Z,5.39
2022-12-03T13:54:32.452Z,5.48
2022-12-03T13:57:05.968Z,5.06
2022-12-03T13:59:35.584Z,4.95
2022-12-03T14:02:05.211Z,5.15
2022-12-03T14:04:35.057Z,5.31
2022-12-03T14:07:04.591Z,5.52
2022-12-03T14:09:34.221Z,5.27
2022-12-03T14:12:19.282Z,4.60
2022-12-03T14:14:48.839Z,4.47
2022-12-03T14:17:18.452Z,4.45
2022-12-03T14:19:48.002Z,4.33
2022-12-03T14:22:19.324Z,4.59
2022-12-03T14:24:48.901Z,4.59
2022-12-03T14:27:20.978Z,4.27
2022-12-03T14:29:50.518Z,4.49
2022-12-03T14:32:20.069Z,4.11
2022-12-03T14:34:49.634Z,4.00
2022-12-03T14:37:19.098Z,4.36
2022-12-03T14:39:48.648Z,4.37
2022-12-03T14:42:21.035Z,4.27
2022-12-03T14:44:51.291Z,4.83
2022-12-03T14:47:22.588Z,4.63
2022-12-03T14:49:52.754Z,5.09
2022-12-03T14:52:22.704Z,5.07
2022-12-03T14:54:52.240Z,4.81
2022-12-03T14:57:24.366Z,4.77
2022-12-03T14:59:54.382Z,5.05
2022-12-03T15:02:24.256Z,5.28
2022-12-03T15:04:53.877Z,5.18
2022-12-03T15:07:23.480Z,5.17
2022-12-03T15:09:53.370Z,5.07
2022-12-03T15:12:25.814Z,5.19
2022-12-03T15:14:55.350Z,4.98
2022-12-03T15:17:31.334Z,5.17
2022-12-03T15:20:01.677Z,5.27
2022-12-03T15:22:31.169Z,5.16
2022-12-03T15:25:02.521Z,5.38
2022-12-03T15:27:34.646Z,5.45
2022-12-03T15:30:04.183Z,5.56
2022-12-03T15:32:33.739Z,5.57
2022-12-03T15:35:03.317Z,5.57
2022-12-03T15:37:32.843Z,5.55
2022-12-03T15:40:02.323Z,5.37
2022-12-03T15:42:34.392Z,5.46
2022-12-03T15:45:03.899Z,5.41
2022-12-03T15:47:33.715Z,5.35
2022-12-03T15:50:03.186Z,5.17
2022-12-03T15:52:32.620Z,5.37
2022-12-03T15:55:02.128Z,5.57
2022-12-03T15:57:34.161Z,5.56
2022-12-03T16:00:03.717Z,5.49
2022-12-03T16:02:34.004Z,5.22
2022-12-03T16:05:03.727Z,5.34
2022-12-03T16:07:33.293Z,5.23
2022-12-03T16:10:02.924Z,5.27
2022-12-03T16:12:35.053Z,5.48
2022-12-03T16:15:04.530Z,5.49
2022-12-03T16:17:33.961Z,5.57
2022-12-03T16:20:03.493Z,5.62
2022-12-03T16:22:32.933Z,5.57
2022-12-03T16:25:03.261Z,5.38
2022-12-03T16:27:37.077Z,5.17
2022-12-03T16:30:07.560Z,5.27
2022-12-03T16:32:37.271Z,5.34
2022-12-03T16:35:07.117Z,5.41
2022-12-03T16:37:36.582Z,5.58
2022-12-03T16:40:06.364Z,5.41
2022-12-03T16:42:39.114Z,5.40
2022-12-03T16:45:22.692Z,5.24
2022-12-03T16:47:52.288Z,5.21
2022-12-03T16:50:29.072Z,5.14
2022-12-03T16:52:59.541Z,5.24
2022-12-03T16:55:29.109Z,5.47
2022-12-03T16:58:01.194Z,5.49
2022-12-03T17:00:31.112Z,5.44
2022-12-03T17:03:00.619Z,5.31
2022-12-03T17:05:30.150Z,5.34
2022-12-03T17:07:59.639Z,5.31
2022-12-03T17:10:29.229Z,5.14
2022-12-03T17:13:09.229Z,5.19
2022-12-03T17:15:39.790Z,4.95
2022-12-03T17:18:09.489Z,4.96
2022-12-03T17:20:38.996Z,4.92
2022-12-03T17:23:08.475Z,4.90
2022-12-03T17:25:38.008Z,4.95
2022-12-03T17:28:10.114Z,5.03
2022-12-03T17:30:39.610Z,4.77
2022-12-03T17:33:09.038Z,4.67
2022-12-03T17:35:38.575Z,4.86
2022-12-03T17:38:09.106Z,4.97
2022-12-03T17:40:38.921Z,4.88
2022-12-03T17:43:11.023Z,4.69
2022-12-03T17:45:40.662Z,4.88
2022-12-03T17:48:10.314Z,4.74
2022-12-03T17:50:39.798Z,4.83
2022-12-03T17:53:10.530Z,5.14
2022-12-03T17:55:44.703Z,5.13
2022-12-03T17:58:17.245Z,5.18
2022-12-03T18:00:46.963Z,5.29
2022-12-03T18:03:16.426Z,5.06
2022-12-03T18:05:45.908Z,4.89
2022-12-03T18:08:15.457Z,4.91
2022-12-03T18:10:44.915Z,5.03
2022-12-03T18:13:16.958Z,5.07
2022-12-03T18:15:46.458Z,5.06
2022-12-03T18:18:16.001Z,4.99
2022-12-03T18:20:45.757Z,4.97
2022-12-03T18:23:15.222Z,4.93
2022-12-03T18:25:44.665Z,5.01
2022-12-03T18:28:16.689Z,5.13
2022-12-03T18:30:52.007Z,4.93
2022-12-03T18:33:23.371Z,5.07
2022-12-03T18:35:55.429Z,4.96
2022-12-03T18:38:24.974Z,4.94
2022-12-03T18:40:54.441Z,4.90
2022-12-03T18:43:27.986Z,4.73
2022-12-03T18:45:57.456Z,4.72
2022-12-03T18:48:27.544Z,4.62
2022-12-03T18:50:57.007Z,4.77
2022-12-03T18:53:26.503Z,4.67
2022-12-03T18:55:56.649Z,4.85
2022-12-03T18:58:28.703Z,4.97
2022-12-03T19:00:58.266Z,4.88
2022-12-03T19:03:27.851Z,4.86
2022-12-03T19:05:57.332Z,5.01
2022-12-03T19:08:26.952Z,5.14
2022-12-03T19:10:59.684Z,5.00
2022-12-03T19:13:31.741Z,4.79
2022-12-03T19:16:04.237Z,4.67
2022-12-03T19:18:33.735Z,4.67
2022-12-03T19:21:03.247Z,4.92
2022-12-03T19:23:32.722Z,4.96
2022-12-03T19:26:03.033Z,5.10
2022-12-03T19:28:35.223Z,5.16
2022-12-03T19:31:05.852Z,5.16
2022-12-03T19:33:35.696Z,4.95
2022-12-03T19:36:05.651Z,4.87
2022-12-03T19:38:35.184Z,5.05
2022-12-03T19:41:06.374Z,4.98
2022-12-03T19:43:38.841Z,5.14
2022-12-03T19:46:09.430Z,5.20
2022-12-03T19:48:39.837Z,5.16
2022-12-03T19:51:33.145Z,5.11
2022-12-03T19:53:59.297Z,5.23
2022-12-03T19:56:30.345Z,4.95
2022-12-03T19:59:02.747Z,4.75
2022-12-03T20:01:33.311Z,4.89
2022-12-03T20:04:03.475Z,5.10
2022-12-03T20:06:35.488Z,5.23
2022-12-03T20:09:07.793Z,5.05
2022-12-03T20:11:37.616Z,5.09
2022-12-03T20:14:10.563Z,5.08
2022-12-03T20:16:40.173Z,4.99
2022-12-03T20:19:10.308Z,5.10
2022-12-03T20:21:39.972Z,4.77
2022-12-03T20:24:10.099Z,4.86
2022-12-03T20:26:39.596Z,4.93
2022-12-03T20:29:11.640Z,4.74
2022-12-03T20:31:41.222Z,4.90
2022-12-03T20:34:10.743Z,4.91
2022-12-03T20:36:40.205Z,5.00
2022-12-03T20:39:10.055Z,4.90
2022-12-03T20:41:42.245Z,4.95
2022-12-03T20:44:14.327Z,5.04
2022-12-03T20:46:44.105Z,5.11
2022-12-03T20:49:13.654Z,5.17
2022-12-03T20:51:43.580Z,5.04
2022-12-03T20:54:13.081Z,5.15
2022-12-03T20:56:42.564Z,4.98
2022-12-03T20:59:16.530Z,5.24
2022-12-03T21:01:46.145Z,5.22
2022-12-03T21:04:16.211Z,5.31
2022-12-03T21:06:45.665Z,5.03
2022-12-03T21:09:15.314Z,5.00
2022-12-03T21:11:44.786Z,5.03
2022-12-03T21:14:16.855Z,5.01
2022-12-03T21:19:38.653Z,5.02
2022-12-03T21:22:08.294Z,5.17
2022-12-03T21:24:37.788Z,4.89
2022-12-03T21:27:07.250Z,4.78
2022-12-03T21:29:39.458Z,4.69
2022-12-03T21:32:08.924Z,4.72
2022-12-03T21:34:38.378Z,4.72
2022-12-03T21:37:07.856Z,4.89
2022-12-03T21:39:37.425Z,4.73
2022-12-03T21:42:33.909Z,4.82
2022-12-03T21:44:59.337Z,5.07
2022-12-03T21:47:33.474Z,4.99
2022-12-03T21:50:07.134Z,4.84
2022-12-03T21:52:36.731Z,4.99
2022-12-03T21:55:06.367Z,5.12
2022-12-03T21:57:37.849Z,5.20
2022-12-03T22:00:11.376Z,5.23
2022-12-03T22:02:41.182Z,4.98
2022-12-03T22:05:11.374Z,4.94
2022-12-03T22:07:41.309Z,5.17
2022-12-03T22:10:12.474Z,5.16
2022-12-03T22:12:42.316Z,5.20
2022-12-03T22:15:18.803Z,5.09
2022-12-03T22:17:49.078Z,5.03
2022-12-03T22:20:18.665Z,5.08
2022-12-03T22:22:48.146Z,5.14
2022-12-03T22:25:17.853Z,5.13
2022-12-03T22:27:47.300Z,5.19
2022-12-03T22:30:19.567Z,5.10
2022-12-03T22:32:49.022Z,5.02
2022-12-03T22:35:18.584Z,5.02
2022-12-03T22:37:48.037Z,4.97
2022-12-03T22:40:17.926Z,4.88
2022-12-03T22:42:50.975Z,4.91
2022-12-03T22:45:23.303Z,5.01
2022-12-03T22:47:52.728Z,4.91
2022-12-03T22:50:22.283Z,4.92
2022-12-03T22:52:51.745Z,4.99
2022-12-03T22:55:21.222Z,4.77
2022-12-03T22:57:50.690Z,5.02
2022-12-03T23:00:33.085Z,4.70
2022-12-03T23:03:02.642Z,4.73
2022-12-03T23:05:37.000Z,4.74
2022-12-03T23:08:06.735Z,4.72
2022-12-03T23:10:36.824Z,4.84
2022-12-03T23:13:06.477Z,5.03
2022-12-03T23:15:38.637Z,5.15
2022-12-03T23:18:08.266Z,5.08
2022-12-03T23:20:37.735Z,5.15
2022-12-03T23:23:07.199Z,5.02
2022-12-03T23:25:37.342Z,5.05
2022-12-03T23:28:06.876Z,4.79
2022-12-03T23:30:40.369Z,4.85
2022-12-03T23:33:09.838Z,4.96
2022-12-03T23:35:39.290Z,5.08
2022-12-03T23:38:08.721Z,5.03
2022-12-03T23:40:39.599Z,5.10
2022-12-03T23:43:12.045Z,4.77
2022-12-03T23:45:44.352Z,4.94
2022-12-03T23:48:13.842Z,5.01
2022-12-03T23:50:43.296Z,4.99
2022-12-03T23:53:12.764Z,4.85
2022-12-03T23:55:42.508Z,4.74
2022-12-03T23:58:11.954Z,4.59
